createdAt,value
2018-11-10T00:00:01.959Z,7.80
2018-11-10T00:02:29.796Z,7.47
2018-11-10T00:04:57.588Z,12.77
2018-11-10T00:07:27.500Z,7.70
2018-11-10T00:09:55.359Z,8.67
2018-11-10T00:12:25.453Z,7.70
2018-11-10T00:14:53.265Z,8.70
2018-11-10T00:17:21.184Z,6.87
2018-11-10T00:19:49.056Z,8.63
2018-11-10T00:22:17.002Z,9.13
2018-11-10T00:24:44.903Z,8.27
2018-11-10T00:27:12.744Z,8.80
2018-11-10T00:29:40.677Z,8.30
2018-11-10T00:32:08.465Z,10.23
2018-11-10T00:34:36.455Z,10.33
2018-11-10T00:37:18.467Z,9.50
2018-11-10T00:39:46.428Z,9.00
2018-11-10T00:42:14.305Z,7.63
2018-11-10T00:44:43.581Z,7.30
2018-11-10T00:47:13.654Z,7.00
2018-11-10T00:49:43.571Z,6.83
2018-11-10T00:52:11.418Z,7.00
2018-11-10T00:54:39.256Z,7.13
2018-11-10T00:57:07.610Z,6.70
2018-11-10T00:59:35.766Z,7.03
2018-11-10T01:02:05.365Z,7.00
2018-11-10T01:04:33.662Z,8.20
2018-11-10T01:07:01.901Z,7.33
2018-11-10T01:12:07.179Z,7.10
2018-11-10T01:14:36.100Z,9.03
2018-11-10T01:17:03.958Z,8.93
2018-11-10T01:19:33.070Z,8.00
2018-11-10T01:22:01.335Z,7.67
2018-11-10T01:24:29.806Z,7.47
2018-11-10T01:26:57.586Z,8.83
2018-11-10T01:29:25.405Z,7.50
2018-11-10T01:31:53.177Z,8.90
2018-11-10T01:34:21.049Z,5.80
2018-11-10T01:36:48.900Z,6.83
2018-11-10T01:39:16.713Z,5.90
2018-11-10T01:41:44.567Z,7.17
2018-11-10T01:44:12.412Z,5.00
2018-11-10T01:46:40.230Z,5.43
2018-11-10T01:49:08.010Z,5.90
2018-11-10T01:51:35.776Z,5.53
2018-11-10T01:54:03.583Z,6.53
2018-11-10T01:56:31.369Z,6.57
2018-11-10T01:58:59.137Z,6.13
2018-11-10T02:01:26.936Z,5.53
2018-11-10T02:03:54.775Z,5.87
2018-11-10T02:06:22.759Z,6.80
2018-11-10T02:08:50.665Z,6.03
2018-11-10T02:11:18.482Z,7.00
2018-11-10T02:13:46.462Z,7.30
2018-11-10T02:16:14.293Z,7.10
2018-11-10T02:18:42.146Z,7.70
2018-11-10T02:21:10.056Z,7.07
2018-11-10T02:23:37.949Z,5.17
2018-11-10T02:26:05.793Z,5.00
2018-11-10T02:28:33.873Z,4.93
2018-11-10T02:31:02.685Z,4.80
2018-11-10T02:33:30.466Z,5.13
2018-11-10T02:35:58.532Z,4.97
2018-11-10T02:38:26.377Z,5.90
2018-11-10T02:40:54.109Z,6.80
2018-11-10T02:43:21.878Z,6.87
2018-11-10T02:45:49.648Z,6.00
2018-11-10T02:48:17.462Z,6.13
2018-11-10T02:50:46.150Z,7.57
2018-11-10T02:53:13.948Z,7.73
2018-11-10T02:55:41.848Z,7.57
2018-11-10T02:58:09.628Z,7.10
2018-11-10T03:00:37.411Z,7.50
2018-11-10T03:03:05.293Z,7.73
2018-11-10T03:05:33.225Z,6.67
2018-11-10T03:08:01.023Z,8.73
2018-11-10T03:10:28.807Z,7.47
2018-11-10T03:12:56.639Z,6.90
2018-11-10T03:15:24.433Z,5.83
2018-11-10T03:17:52.188Z,5.37
2018-11-10T03:20:20.104Z,5.17
2018-11-10T03:22:47.880Z,4.80
2018-11-10T03:25:15.696Z,4.00
2018-11-10T03:27:43.530Z,4.13
2018-11-10T03:30:11.420Z,4.17
2018-11-10T03:32:39.261Z,3.90
2018-11-10T03:35:08.193Z,3.60
2018-11-10T03:37:36.040Z,4.30
2018-11-10T03:40:04.705Z,4.60
2018-11-10T03:42:32.741Z,4.63
2018-11-10T03:45:00.641Z,4.90
2018-11-10T03:47:28.433Z,5.10
2018-11-10T03:49:56.241Z,5.30
2018-11-10T03:52:24.029Z,6.77
2018-11-10T03:54:51.801Z,6.03
2018-11-10T03:57:19.591Z,5.33
2018-11-10T03:59:47.369Z,5.60
2018-11-10T04:02:15.878Z,4.80
2018-11-10T04:04:43.668Z,5.20
2018-11-10T04:07:11.509Z,5.13
2018-11-10T04:09:39.352Z,5.67
2018-11-10T04:12:07.111Z,4.87
2018-11-10T04:14:35.532Z,4.53
2018-11-10T04:17:03.345Z,4.30
2018-11-10T04:19:31.113Z,4.33
2018-11-10T04:21:58.969Z,6.07
2018-11-10T04:24:26.772Z,3.80
2018-11-10T04:26:54.548Z,5.00
2018-11-10T04:29:22.669Z,4.50
2018-11-10T04:31:50.460Z,5.07
2018-11-10T04:34:18.249Z,6.10
2018-11-10T04:36:46.084Z,4.87
2018-11-10T04:39:13.840Z,5.50
2018-11-10T04:41:42.815Z,4.90
2018-11-10T04:44:10.612Z,5.60
2018-11-10T04:46:38.365Z,9.50
2018-11-10T04:49:06.244Z,9.83
2018-11-10T04:51:34.112Z,5.80
2018-11-10T04:54:01.901Z,5.27
2018-11-10T04:56:30.181Z,8.23
2018-11-10T04:58:57.955Z,6.70
2018-11-10T05:01:25.743Z,5.27
2018-11-10T05:03:54.935Z,4.93
2018-11-10T05:06:22.931Z,5.50
2018-11-10T05:08:50.697Z,5.63
2018-11-10T05:11:18.488Z,4.73
2018-11-10T05:13:46.938Z,4.63
2018-11-10T05:16:14.716Z,5.20
2018-11-10T05:18:42.526Z,4.87
2018-11-10T05:21:10.464Z,4.17
2018-11-10T05:23:38.271Z,4.40
2018-11-10T05:26:06.239Z,4.83
2018-11-10T05:28:34.296Z,6.27
2018-11-10T05:31:02.506Z,4.50
2018-11-10T05:33:30.273Z,5.13
2018-11-10T05:35:58.053Z,4.27
2018-11-10T05:38:25.818Z,4.87
2018-11-10T05:40:53.672Z,5.00
2018-11-10T05:43:21.497Z,4.10
2018-11-10T05:45:49.301Z,5.17
2018-11-10T05:48:17.092Z,3.53
2018-11-10T05:50:44.912Z,4.20
2018-11-10T05:53:12.712Z,5.33
2018-11-10T05:55:40.655Z,4.00
2018-11-10T05:58:08.540Z,3.43
2018-11-10T06:00:36.545Z,3.30
2018-11-10T06:03:04.503Z,3.30
2018-11-10T06:05:32.333Z,3.90
2018-11-10T06:08:00.138Z,4.10
2018-11-10T06:10:28.069Z,6.10
2018-11-10T06:12:55.769Z,4.23
2018-11-10T06:15:23.609Z,4.40
2018-11-10T06:17:51.449Z,5.33
2018-11-10T06:20:19.226Z,5.17
2018-11-10T06:22:47.064Z,5.80
2018-11-10T06:25:14.829Z,5.00
2018-11-10T06:27:42.605Z,6.10
2018-11-10T06:30:11.726Z,4.50
2018-11-10T06:32:39.638Z,3.83
2018-11-10T06:35:08.117Z,4.67
2018-11-10T06:37:36.005Z,5.23
2018-11-10T06:40:04.423Z,4.00
2018-11-10T06:42:32.217Z,4.63
2018-11-10T06:45:00.028Z,4.07
2018-11-10T06:47:27.822Z,3.80
2018-11-10T06:49:55.635Z,3.70
2018-11-10T06:52:23.424Z,4.33
2018-11-10T06:54:51.189Z,3.07
2018-11-10T06:57:18.985Z,3.77
2018-11-10T06:59:46.792Z,8.27
2018-11-10T07:02:17.216Z,11.00
2018-11-10T07:04:44.998Z,9.00
2018-11-10T07:07:13.258Z,5.20
2018-11-10T07:09:41.049Z,5.43
2018-11-10T07:12:08.830Z,4.40
2018-11-10T07:14:38.006Z,6.83
2018-11-10T07:17:05.817Z,5.67
2018-11-10T07:19:33.576Z,3.47
2018-11-10T07:22:01.409Z,4.70
2018-11-10T07:24:29.219Z,5.20
2018-11-10T07:26:57.005Z,5.17
2018-11-10T07:29:24.895Z,5.37
2018-11-10T07:31:52.723Z,5.80
2018-11-10T07:34:20.754Z,4.43
2018-11-10T07:36:48.545Z,8.50
2018-11-10T07:39:16.345Z,7.13
2018-11-10T07:41:44.129Z,5.50
2018-11-10T07:44:12.060Z,4.07
2018-11-10T07:46:39.876Z,5.23
2018-11-10T07:49:07.718Z,5.37
2018-11-10T07:51:35.789Z,21.50
2018-11-10T07:54:03.589Z,21.77
2018-11-10T07:56:31.381Z,11.13
2018-11-10T07:58:59.162Z,7.10
2018-11-10T08:01:26.961Z,5.93
2018-11-10T08:03:54.776Z,7.33
2018-11-10T08:06:22.537Z,6.53
2018-11-10T08:08:50.346Z,6.93
2018-11-10T08:11:19.464Z,7.47
2018-11-10T08:13:47.580Z,8.30
2018-11-10T08:16:15.381Z,7.90
2018-11-10T08:18:43.298Z,10.33
2018-11-10T08:21:11.045Z,9.40
2018-11-10T08:23:38.936Z,12.37
2018-11-10T08:26:07.177Z,11.40
2018-11-10T08:28:35.035Z,9.37
2018-11-10T08:31:02.824Z,10.77
2018-11-10T08:33:30.617Z,12.30
2018-11-10T08:35:58.641Z,17.10
2018-11-10T08:38:26.443Z,23.63
2018-11-10T08:40:54.233Z,27.40
2018-11-10T08:43:22.023Z,24.73
2018-11-10T08:45:49.792Z,26.13
2018-11-10T08:48:17.608Z,28.60
2018-11-10T08:50:45.373Z,24.97
2018-11-10T08:53:13.223Z,29.77
2018-11-10T08:55:41.108Z,26.40
2018-11-10T08:58:08.990Z,29.97
2018-11-10T09:00:37.009Z,30.57
2018-11-10T09:03:05.340Z,30.33
2018-11-10T09:05:33.117Z,33.27
2018-11-10T09:08:00.926Z,29.67
2018-11-10T09:10:28.781Z,27.60
2018-11-10T09:12:56.799Z,29.10
2018-11-10T09:15:24.699Z,27.37
2018-11-10T09:17:52.597Z,27.60
2018-11-10T09:20:20.647Z,27.63
2018-11-10T09:22:48.859Z,23.77
2018-11-10T09:25:17.893Z,28.13
2018-11-10T09:27:45.945Z,24.50
2018-11-10T09:30:15.228Z,24.30
2018-11-10T09:32:44.654Z,24.63
2018-11-10T09:35:13.665Z,27.67
2018-11-10T09:37:41.856Z,24.30
2018-11-10T09:40:14.485Z,29.17
2018-11-10T09:42:43.145Z,29.60
2018-11-10T09:45:12.736Z,29.53
2018-11-10T09:47:41.349Z,30.10
2018-11-10T09:50:13.297Z,27.67
2018-11-10T09:52:42.227Z,28.53
2018-11-10T09:55:11.183Z,29.80
2018-11-10T09:57:39.461Z,32.10
2018-11-10T10:00:10.937Z,29.93
2018-11-10T10:02:39.930Z,33.73
2018-11-10T10:05:08.891Z,31.27
2018-11-10T10:07:37.668Z,31.47
2018-11-10T10:10:07.251Z,32.37
2018-11-10T10:12:35.325Z,31.73
2018-11-10T10:15:03.511Z,30.63
2018-11-10T10:17:31.629Z,31.57
2018-11-10T10:19:59.612Z,31.40
2018-11-10T10:22:27.616Z,32.30
2018-11-10T10:24:55.524Z,31.60
2018-11-10T10:27:23.450Z,32.30
2018-11-10T10:29:51.432Z,33.40
2018-11-10T10:32:19.511Z,31.87
2018-11-10T10:34:47.582Z,35.67
2018-11-10T10:37:15.461Z,31.67
2018-11-10T10:39:43.499Z,33.23
2018-11-10T10:42:11.763Z,29.80
2018-11-10T10:44:40.872Z,29.07
2018-11-10T10:47:09.373Z,33.67
2018-11-10T10:49:37.629Z,30.43
2018-11-10T10:52:05.569Z,29.30
2018-11-10T10:54:33.653Z,28.17
2018-11-10T10:57:01.707Z,30.77
2018-11-10T10:59:29.614Z,27.27
2018-11-10T11:02:03.170Z,32.97
2018-11-10T11:04:37.528Z,29.03
2018-11-10T11:07:05.752Z,29.03
2018-11-10T11:09:34.337Z,32.77
2018-11-10T11:12:02.372Z,29.47
2018-11-10T11:14:30.463Z,29.33
2018-11-10T11:16:58.710Z,30.17
2018-11-10T11:19:26.696Z,34.03
2018-11-10T11:21:55.032Z,30.47
2018-11-10T11:24:23.142Z,29.83
2018-11-10T11:26:52.033Z,29.83
2018-11-10T11:29:22.489Z,30.60
2018-11-10T11:31:50.675Z,31.37
2018-11-10T11:34:19.692Z,32.77
2018-11-10T11:36:48.132Z,29.53
2018-11-10T11:39:16.200Z,29.60
2018-11-10T11:41:44.221Z,29.80
2018-11-10T11:44:12.417Z,33.20
2018-11-10T11:46:40.542Z,29.03
2018-11-10T11:49:09.047Z,29.23
2018-11-10T11:51:37.511Z,28.83
2018-11-10T11:54:06.377Z,27.93
2018-11-10T11:56:35.195Z,26.23
2018-11-10T11:59:03.334Z,29.97
2018-11-10T12:01:31.492Z,29.60
2018-11-10T12:03:59.716Z,30.00
2018-11-10T12:06:27.847Z,28.70
2018-11-10T12:08:56.066Z,27.97
2018-11-10T12:11:24.141Z,28.37
2018-11-10T12:13:52.388Z,26.67
2018-11-10T12:16:27.180Z,26.93
2018-11-10T12:18:48.703Z,28.73
2018-11-10T12:21:17.037Z,28.43
2018-11-10T12:23:45.206Z,25.60
2018-11-10T12:26:13.461Z,24.43
2018-11-10T12:28:41.562Z,25.07
2018-11-10T12:31:09.845Z,25.63
2018-11-10T12:33:37.982Z,24.87
2018-11-10T12:36:06.820Z,24.13
2018-11-10T12:38:35.216Z,22.63
2018-11-10T12:41:07.556Z,22.17
2018-11-10T12:43:35.733Z,21.30
2018-11-10T12:46:05.253Z,22.03
2018-11-10T12:48:33.953Z,21.60
2018-11-10T12:51:02.272Z,22.10
2018-11-10T12:53:30.521Z,21.70
2018-11-10T12:55:58.677Z,20.97
2018-11-10T12:58:26.849Z,20.27
2018-11-10T13:00:54.980Z,22.57
2018-11-10T13:03:23.151Z,20.33
2018-11-10T13:05:51.508Z,21.67
2018-11-10T13:08:20.015Z,21.20
2018-11-10T13:10:48.404Z,19.53
2018-11-10T13:13:17.045Z,19.13
2018-11-10T13:15:45.362Z,19.53
2018-11-10T13:18:15.935Z,19.53
2018-11-10T13:20:43.965Z,19.50
2018-11-10T13:23:12.326Z,19.43
2018-11-10T13:25:41.006Z,21.07
2018-11-10T13:28:09.385Z,19.70
2018-11-10T13:30:37.578Z,19.23
2018-11-10T13:33:06.060Z,18.67
2018-11-10T13:35:36.624Z,20.87
2018-11-10T13:38:05.362Z,19.87
2018-11-10T13:40:33.552Z,18.47
2018-11-10T13:43:01.717Z,19.80
2018-11-10T13:45:29.973Z,20.08
2018-11-10T13:47:58.138Z,19.27
2018-11-10T13:50:26.344Z,18.73
2018-11-10T13:52:54.965Z,21.10
2018-11-10T13:55:22.796Z,17.92
2018-11-10T13:57:50.907Z,20.00
2018-11-10T14:00:19.161Z,19.55
2018-11-10T14:02:47.405Z,20.48
2018-11-10T14:05:15.669Z,19.45
2018-11-10T14:07:43.935Z,19.60
2018-11-10T14:10:13.904Z,19.05
2018-11-10T14:12:43.359Z,17.30
2018-11-10T14:15:12.180Z,20.12
2018-11-10T14:17:41.322Z,17.27
2018-11-10T14:20:16.559Z,19.85
2018-11-10T14:22:45.585Z,19.30
2018-11-10T14:25:14.665Z,19.55
2018-11-10T14:27:43.499Z,19.67
2018-11-10T14:30:13.443Z,19.82
2018-11-10T14:32:42.245Z,19.57
2018-11-10T14:35:11.202Z,19.17
2018-11-10T14:37:39.497Z,20.90
2018-11-10T14:40:10.091Z,20.93
2018-11-10T14:42:39.204Z,20.47
2018-11-10T14:45:08.672Z,19.40
2018-11-10T14:47:36.833Z,19.90
2018-11-10T14:50:06.913Z,22.40
2018-11-10T14:52:35.180Z,22.30
2018-11-10T14:55:03.314Z,21.60
2018-11-10T14:57:31.499Z,23.00
2018-11-10T14:59:59.556Z,23.43
2018-11-10T15:02:28.092Z,22.77
2018-11-10T15:04:56.315Z,21.83
2018-11-10T15:07:24.472Z,21.93
2018-11-10T15:09:52.676Z,24.03
2018-11-10T15:12:20.984Z,23.43
2018-11-10T15:14:49.951Z,23.60
2018-11-10T15:17:18.063Z,23.80
2018-11-10T15:19:46.105Z,21.87
2018-11-10T15:22:14.310Z,25.80
2018-11-10T15:24:42.431Z,24.10
2018-11-10T15:27:11.104Z,24.77
2018-11-10T15:29:39.116Z,24.53
2018-11-10T15:32:07.485Z,24.27
2018-11-10T15:34:35.819Z,26.93
2018-11-10T15:37:03.978Z,26.47
2018-11-10T15:39:32.167Z,28.97
2018-11-10T15:42:00.368Z,27.27
2018-11-10T15:44:28.719Z,26.60
2018-11-10T15:46:57.017Z,29.00
2018-11-10T15:49:25.173Z,28.80
2018-11-10T15:51:53.291Z,28.40
2018-11-10T15:54:21.675Z,29.77
2018-11-10T15:56:49.821Z,29.60
2018-11-10T15:59:18.079Z,30.00
2018-11-10T16:01:46.371Z,32.13
2018-11-10T16:04:14.584Z,35.20
2018-11-10T16:06:42.835Z,32.83
2018-11-10T16:09:12.508Z,33.77
2018-11-10T16:11:40.960Z,31.03
2018-11-10T16:14:09.095Z,32.80
2018-11-10T16:16:37.131Z,31.40
2018-11-10T16:19:05.267Z,35.10
2018-11-10T16:21:33.402Z,31.53
2018-11-10T16:24:01.608Z,32.87
2018-11-10T16:26:29.908Z,33.43
2018-11-10T16:28:58.392Z,34.27
2018-11-10T16:31:27.456Z,34.90
2018-11-10T16:33:55.670Z,35.97
2018-11-10T16:36:24.601Z,37.57
2018-11-10T16:38:52.901Z,42.70
2018-11-10T16:41:22.455Z,39.17
2018-11-10T16:43:50.642Z,36.57
2018-11-10T16:46:18.823Z,38.60
2018-11-10T16:48:46.845Z,35.83
2018-11-10T16:51:15.146Z,37.07
2018-11-10T16:53:43.179Z,34.27
2018-11-10T16:56:11.815Z,36.53
2018-11-10T16:58:40.255Z,36.70
2018-11-10T17:01:08.570Z,36.93
2018-11-10T17:03:36.690Z,41.03
2018-11-10T17:06:04.806Z,36.37
2018-11-10T17:08:32.923Z,38.70
2018-11-10T17:11:00.888Z,35.90
2018-11-10T17:13:29.099Z,38.77
2018-11-10T17:15:57.173Z,36.10
2018-11-10T17:18:25.398Z,37.97
2018-11-10T17:20:53.415Z,39.87
2018-11-10T17:23:21.399Z,41.40
2018-11-10T17:25:49.377Z,41.97
2018-11-10T17:28:17.378Z,43.20
2018-11-10T17:30:45.514Z,41.27
2018-11-10T17:33:13.936Z,38.57
2018-11-10T17:35:42.394Z,38.30
2018-11-10T17:38:10.895Z,37.70
2018-11-10T17:40:39.078Z,40.23
2018-11-10T17:43:07.231Z,42.03
2018-11-10T17:45:35.734Z,39.20
2018-11-10T17:48:04.161Z,39.67
2018-11-10T17:50:32.454Z,35.53
2018-11-10T17:53:00.570Z,37.93
2018-11-10T17:55:28.738Z,36.87
2018-11-10T17:57:57.056Z,35.83
2018-11-10T18:00:25.161Z,38.43
2018-11-10T18:02:53.953Z,40.53
2018-11-10T18:05:22.335Z,36.07
2018-11-10T18:07:50.608Z,36.17
2018-11-10T18:10:18.916Z,36.20
2018-11-10T18:12:47.214Z,36.50
2018-11-10T18:15:15.593Z,40.10
2018-11-10T18:17:44.056Z,36.83
2018-11-10T18:20:13.629Z,33.80
2018-11-10T18:22:42.449Z,38.10
2018-11-10T18:25:10.652Z,35.80
2018-11-10T18:27:38.744Z,34.67
2018-11-10T18:30:08.372Z,31.63
2018-11-10T18:32:36.575Z,34.67
2018-11-10T18:35:05.441Z,38.13
2018-11-10T18:37:33.542Z,37.93
2018-11-10T18:40:01.839Z,38.03
2018-11-10T18:42:29.899Z,36.23
2018-11-10T18:44:58.176Z,37.67
2018-11-10T18:47:26.759Z,41.60
2018-11-10T18:49:54.917Z,37.93
2018-11-10T18:52:23.260Z,37.80
2018-11-10T18:54:51.604Z,59.27
2018-11-10T18:57:21.980Z,52.97
2018-11-10T18:59:49.937Z,43.20
2018-11-10T19:02:17.983Z,40.63
2018-11-10T19:04:46.059Z,39.13
2018-11-10T19:07:14.497Z,41.60
2018-11-10T19:09:42.931Z,43.87
2018-11-10T19:12:11.293Z,42.67
2018-11-10T19:14:39.550Z,37.10
2018-11-10T19:17:07.650Z,35.53
2018-11-10T19:19:35.719Z,35.73
2018-11-10T19:22:04.462Z,43.27
2018-11-10T19:24:32.780Z,42.87
2018-11-10T19:27:01.085Z,32.17
2018-11-10T19:29:29.212Z,34.37
2018-11-10T19:31:57.855Z,34.70
2018-11-10T19:34:26.014Z,29.03
2018-11-10T19:36:54.145Z,26.13
2018-11-10T19:39:22.270Z,26.90
2018-11-10T19:41:50.327Z,28.03
2018-11-10T19:44:18.369Z,28.13
2018-11-10T19:46:46.502Z,33.47
2018-11-10T19:49:14.571Z,32.53
2018-11-10T19:51:43.199Z,37.23
2018-11-10T19:54:11.630Z,36.47
2018-11-10T19:56:39.892Z,38.10
2018-11-10T19:59:08.134Z,39.67
2018-11-10T20:01:36.436Z,36.37
2018-11-10T20:04:06.783Z,36.50
2018-11-10T20:06:35.052Z,38.77
2018-11-10T20:09:03.588Z,35.63
2018-11-10T20:11:31.775Z,33.50
2018-11-10T20:13:59.923Z,35.10
2018-11-10T20:16:27.980Z,30.63
2018-11-10T20:18:56.117Z,30.83
2018-11-10T20:21:24.381Z,30.93
2018-11-10T20:23:52.553Z,40.33
2018-11-10T20:26:20.815Z,41.07
2018-11-10T20:28:48.904Z,38.27
2018-11-10T20:31:17.286Z,40.83
2018-11-10T20:33:45.535Z,44.53
2018-11-10T20:36:13.864Z,42.53
2018-11-10T20:38:42.391Z,39.67
2018-11-10T20:41:10.745Z,39.87
2018-11-10T20:43:39.077Z,41.80
2018-11-10T20:46:07.717Z,37.80
2018-11-10T20:48:35.805Z,39.60
2018-11-10T20:51:04.114Z,42.23
2018-11-10T20:53:32.463Z,40.50
2018-11-10T20:56:00.559Z,39.13
2018-11-10T20:58:28.591Z,39.07
2018-11-10T21:00:56.548Z,40.13
2018-11-10T21:03:25.233Z,40.57
2018-11-10T21:05:53.322Z,45.50
2018-11-10T21:08:21.466Z,42.57
2018-11-10T21:10:49.634Z,44.60
2018-11-10T21:13:17.709Z,44.77
2018-11-10T21:15:45.840Z,42.43
2018-11-10T21:18:13.847Z,46.73
2018-11-10T21:20:41.994Z,45.17
2018-11-10T21:23:10.140Z,49.07
2018-11-10T21:25:38.209Z,61.03
2018-11-10T21:28:06.714Z,50.93
2018-11-10T21:30:35.354Z,42.63
2018-11-10T21:33:03.736Z,43.43
2018-11-10T21:35:32.186Z,45.67
2018-11-10T21:38:00.437Z,46.60
2018-11-10T21:40:28.664Z,48.03
2018-11-10T21:42:56.976Z,55.40
2018-11-10T21:45:25.098Z,45.53
2018-11-10T21:47:53.269Z,48.93
2018-11-10T21:50:21.377Z,44.60
2018-11-10T21:52:49.394Z,48.53
2018-11-10T21:55:18.664Z,47.10
2018-11-10T21:57:47.177Z,46.97
2018-11-10T22:00:17.116Z,40.33
2018-11-10T22:02:45.760Z,45.60
2018-11-10T22:05:14.307Z,43.30
2018-11-10T22:07:42.483Z,49.00
2018-11-10T22:10:12.321Z,44.37
2018-11-10T22:12:40.746Z,49.27
2018-11-10T22:15:11.997Z,45.20
2018-11-10T22:17:41.133Z,41.73
2018-11-10T22:20:10.870Z,42.37
2018-11-10T22:22:39.279Z,39.63
2018-11-10T22:25:08.332Z,38.57
2018-11-10T22:27:36.596Z,42.97
2018-11-10T22:30:05.934Z,40.63
2018-11-10T22:32:34.334Z,38.57
2018-11-10T22:35:03.053Z,39.47
2018-11-10T22:37:31.219Z,37.57
2018-11-10T22:39:59.539Z,39.30
2018-11-10T22:42:29.284Z,42.63
2018-11-10T22:44:58.157Z,34.57
2018-11-10T22:47:26.815Z,39.37
2018-11-10T22:49:56.368Z,36.30
2018-11-10T22:52:25.550Z,35.10
2018-11-10T22:54:55.548Z,38.03
2018-11-10T22:57:25.999Z,38.73
2018-11-10T22:59:55.062Z,35.83
2018-11-10T23:02:23.911Z,33.57
2018-11-10T23:04:52.597Z,36.80
2018-11-10T23:07:21.860Z,37.93
2018-11-10T23:09:52.394Z,38.60
2018-11-10T23:12:20.345Z,40.43
2018-11-10T23:14:49.660Z,40.83
2018-11-10T23:17:23.100Z,41.87
2018-11-10T23:19:51.120Z,41.70
2018-11-10T23:22:19.062Z,38.23
2018-11-10T23:24:46.910Z,40.27
2018-11-10T23:27:15.186Z,37.17
2018-11-10T23:29:43.138Z,43.27
2018-11-10T23:32:10.998Z,41.63
2018-11-10T23:34:38.900Z,38.80
2018-11-10T23:37:06.817Z,39.83
2018-11-10T23:39:34.598Z,41.30
2018-11-10T23:42:03.605Z,38.00
2018-11-10T23:44:31.524Z,39.00
2018-11-10T23:46:59.340Z,38.67
2018-11-10T23:49:27.175Z,43.27
2018-11-10T23:51:54.988Z,42.40
2018-11-10T23:54:22.801Z,41.47
2018-11-10T23:56:50.699Z,44.33
2018-11-10T23:59:18.493Z,42.77
